Time;durP1;ratioP1;P1;durP2;ratioP2;P2;SDS_P1;SDS_P2;PMS_P1;PMS_P2;Temp;Humidity;BMP_temperature;BMP_pressure;BME280_temperature;BME280_humidity;BME280_pressure;Samples;Min_cycle;Max_cycle;Signal;HPM_P1;HPM_P2
2024/01/08 00:01:01;;;;;;;;;;;;;;;-3.00;100.00;103012.16;5036645;28;20374;-74
2024/01/08 00:03:26;;;;;;;;;;;;;;;-2.99;100.00;103007.78;5008841;28;20421;-72
2024/01/08 00:05:51;;;;;;;;;;;;;;;-3.02;100.00;103011.25;5033505;28;20011;-73
2024/01/08 00:08:16;;;;;;;;;;;;;;;-2.95;100.00;103004.34;5034288;28;19929;-74
2024/01/08 00:10:42;;;;;;;;;;;;;;;-2.95;100.00;103007.84;5033538;28;19925;-73
2024/01/08 00:13:08;;;;;;;;;;;;;;;-2.90;100.00;102998.25;5038491;28;20378;-74
2024/01/08 00:15:34;;;;;;;;;;;;;;;-2.93;100.00;103005.25;5034160;28;19925;-74
2024/01/08 00:17:59;;;;;;;;;;;;;;;-2.98;100.00;103004.28;5035817;28;19978;-73
2024/01/08 00:20:24;;;;;;;;;;;;;;;-2.96;100.00;103007.81;5036734;28;19920;-73
2024/01/08 00:22:49;;;;;;;;;;;;;;;-2.90;100.00;103014.03;5035540;28;19968;-73
2024/01/08 00:25:15;;;;;;;;;;;;;;;-2.87;100.00;103011.44;5034976;28;19928;-73
2024/01/08 00:27:40;;;;;;;;;;;;;;;-2.83;100.00;103017.66;5019659;28;19995;-73
2024/01/08 00:30:06;;;;;;;;;;;;;;;-2.86;100.00;103010.59;5035177;28;19925;-73
2024/01/08 00:32:31;;;;;;;;;;;;;;;-2.77;100.00;103001.94;5038311;28;19920;-73
2024/01/08 00:34:56;;;;;;;;;;;;;;;-2.81;100.00;103015.94;5037009;28;19929;-73
2024/01/08 00:37:21;;;;;;;;;;;;;;;-2.92;100.00;103018.41;5037230;28;19960;-73
2024/01/08 00:39:47;;;;;;;;;;;;;;;-2.91;100.00;103004.38;5037387;28;19925;-73
2024/01/08 00:42:12;;;;;;;;;;;;;;;-2.86;100.00;103012.34;5030323;28;20011;-73
2024/01/08 00:44:37;;;;;;;;;;;;;;;-2.89;100.00;103007.06;5034189;28;20330;-73
2024/01/08 00:47:02;;;;;;;;;;;;;;;-3.06;100.00;103005.09;5032481;28;20371;-73
2024/01/08 00:49:28;;;;;;;;;;;;;;;-3.03;100.00;103005.09;5038429;28;20662;-73
2024/01/08 00:51:53;;;;;;;;;;;;;;;-3.02;100.00;103000.75;5036179;28;20035;-73
2024/01/08 00:54:18;;;;;;;;;;;;;;;-3.02;100.00;103006.00;5038534;28;19921;-73
2024/01/08 00:56:43;;;;;;;;;;;;;;;-3.05;100.00;103000.69;5037808;28;19925;-72
2024/01/08 00:59:09;;;;;;;;;;;;;;;-2.96;100.00;103005.19;5035666;28;19963;-73
2024/01/08 01:01:34;;;;;;;;;;;;;;;-2.96;100.00;103002.56;5033957;28;20074;-72
2024/01/08 01:04:00;;;;;;;;;;;;;;;-3.01;100.00;103002.50;5035314;28;19995;-72
2024/01/08 01:06:25;;;;;;;;;;;;;;;-3.07;100.00;103010.31;5034817;28;19960;-72
2024/01/08 01:08:50;;;;;;;;;;;;;;;-3.13;100.00;103004.94;5033289;28;19924;-72
2024/01/08 01:11:16;;;;;;;;;;;;;;;-3.24;100.00;103005.69;5035639;28;19947;-72
2024/01/08 01:13:41;;;;;;;;;;;;;;;-3.28;100.00;103010.88;5035874;28;19925;-72
2024/01/08 01:16:07;;;;;;;;;;;;;;;-3.33;100.00;103022.22;5033618;28;20083;-72
2024/01/08 01:18:32;;;;;;;;;;;;;;;-3.35;100.00;103023.03;5035234;28;19920;-72
2024/01/08 01:20:57;;;;;;;;;;;;;;;-3.46;100.00;103030.75;5035803;28;19921;-72
2024/01/08 01:23:23;;;;;;;;;;;;;;;-3.49;100.00;103023.72;5036372;28;20573;-72
2024/01/08 01:25:48;;;;;;;;;;;;;;;-3.56;100.00;103027.09;5035654;28;19999;-72
2024/01/08 01:28:13;;;;;;;;;;;;;;;-3.58;100.00;103025.31;5036345;28;20419;-72
2024/01/08 01:30:38;;;;;;;;;;;;;;;-3.61;100.00;103026.13;5035760;28;20410;-72
2024/01/08 01:33:03;;;;;;;;;;;;;;;-3.72;100.00;103025.94;5032940;28;20395;-72
2024/01/08 01:35:29;;;;;;;;;;;;;;;-3.74;100.00;103034.66;5035812;28;20379;-72
2024/01/08 01:37:57;;;;;;;;;;;;;;;-3.81;100.00;103037.19;5034759;28;19928;-72
2024/01/08 01:40:23;;;;;;;;;;;;;;;-3.82;100.00;103040.66;5034170;28;19922;-72
2024/01/08 01:42:49;;;;;;;;;;;;;;;-3.82;100.00;103045.91;5036022;28;19987;-73
2024/01/08 01:45:14;;;;;;;;;;;;;;;-3.76;100.00;103037.25;5036172;28;19925;-72
2024/01/08 01:47:40;;;;;;;;;;;;;;;-3.85;100.00;103037.97;5033974;28;19932;-72
2024/01/08 01:50:06;;;;;;;;;;;;;;;-3.84;100.00;103039.75;5033512;28;19917;-72
2024/01/08 01:52:31;;;;;;;;;;;;;;;-3.87;100.00;103039.69;5033966;28;19928;-72
2024/01/08 01:54:56;;;;;;;;;;;;;;;-3.85;100.00;103034.47;5036440;28;19920;-72
2024/01/08 01:57:21;;;;;;;;;;;;;;;-3.89;100.00;103043.16;5035102;28;20251;-72
2024/01/08 01:59:47;;;;;;;;;;;;;;;-3.91;100.00;103037.84;5034509;28;19929;-72
2024/01/08 02:02:14;;;;;;;;;;;;;;;-3.95;100.00;103034.31;5033192;28;19920;-72
2024/01/08 02:04:39;;;;;;;;;;;;;;;-3.87;100.00;103044.94;5033955;28;20075;-72
2024/01/08 02:07:04;;;;;;;;;;;;;;;-3.92;100.00;103042.25;5035380;28;20608;-73
2024/01/08 02:09:29;;;;;;;;;;;;;;;-4.09;100.00;103027.91;5031636;28;19924;-72
2024/01/08 02:11:55;;;;;;;;;;;;;;;-4.02;100.00;103042.91;5033851;28;19984;-72
2024/01/08 02:14:20;;;;;;;;;;;;;;;-4.03;100.00;103041.16;5032949;28;20007;-72
2024/01/08 02:16:45;;;;;;;;;;;;;;;-4.07;100.00;103039.31;5032014;28;19956;-72
2024/01/08 02:19:11;;;;;;;;;;;;;;;-4.04;100.00;103042.00;5031822;28;20077;-72
2024/01/08 02:21:36;;;;;;;;;;;;;;;-3.99;100.00;103044.72;5035799;28;19956;-72
2024/01/08 02:24:01;;;;;;;;;;;;;;;-4.02;100.00;103037.66;5033228;28;20393;-72
2024/01/08 02:26:27;;;;;;;;;;;;;;;-4.14;100.00;103047.94;5032810;28;19923;-72
2024/01/08 02:28:52;;;;;;;;;;;;;;;-4.06;100.00;103054.19;5032655;28;19982;-72
2024/01/08 02:31:19;;;;;;;;;;;;;;;-4.17;100.00;103040.88;5034021;28;19975;-72
2024/01/08 02:33:44;;;;;;;;;;;;;;;-4.18;100.00;103046.97;5033601;28;19958;-72
2024/01/08 02:36:09;;;;;;;;;;;;;;;-4.08;100.00;103046.31;5034479;28;20011;-72
2024/01/08 02:38:34;;;;;;;;;;;;;;;-4.13;100.00;103053.22;5033056;28;19920;-72
2024/01/08 02:41:00;;;;;;;;;;;;;;;-4.12;100.00;103052.34;5032654;28;20306;-72
2024/01/08 02:43:25;;;;;;;;;;;;;;;-4.10;100.00;103052.38;5030829;28;20351;-72
2024/01/08 02:45:50;;;;;;;;;;;;;;;-4.16;100.00;103050.53;5035153;28;19970;-72
2024/01/08 02:48:16;;;;;;;;;;;;;;;-4.17;100.00;103040.00;5034843;28;19924;-72
2024/01/08 02:50:41;;;;;;;;;;;;;;;-4.13;100.00;103045.34;5036717;28;19928;-71
2024/01/08 02:53:06;;;;;;;;;;;;;;;-4.04;100.00;103044.63;5015719;28;19921;-72
2024/01/08 02:55:31;;;;;;;;;;;;;;;-4.07;100.00;103044.56;5033782;28;19932;-72
2024/01/08 02:57:56;;;;;;;;;;;;;;;-4.08;100.00;103053.28;5034799;28;20007;-72
2024/01/08 03:00:22;;;;;;;;;;;;;;;-4.21;100.00;103023.31;5032726;28;20011;-72
2024/01/08 03:02:47;;;;;;;;;;;;;;;-4.02;100.00;103040.28;5034497;28;19925;-71
2024/01/08 03:05:12;;;;;;;;;;;;;;;-3.89;100.00;103054.53;5029400;28;20418;-71
2024/01/08 03:07:37;;;;;;;;;;;;;;;-3.89;100.00;103053.66;5016674;28;20430;-72
2024/01/08 03:10:03;;;;;;;;;;;;;;;-3.83;100.00;103059.88;5028625;28;20339;-72
2024/01/08 03:12:28;;;;;;;;;;;;;;;-3.80;100.00;103049.44;5032247;28;20388;-71
2024/01/08 03:14:53;;;;;;;;;;;;;;;-3.73;100.00;103055.69;5032440;28;19947;-71
2024/01/08 03:17:18;;;;;;;;;;;;;;;-3.73;100.00;103063.56;5032521;28;19920;-71
2024/01/08 03:19:44;;;;;;;;;;;;;;;-3.68;100.00;103064.53;5035780;28;19917;-72
2024/01/08 03:22:09;;;;;;;;;;;;;;;-3.65;100.00;103059.34;5033028;28;20586;-71
2024/01/08 03:24:35;;;;;;;;;;;;;;;-3.66;100.00;103060.19;5034899;28;20132;-72
2024/01/08 03:27:00;;;;;;;;;;;;;;;-3.58;100.00;103062.06;5033722;28;19970;-72
2024/01/08 03:29:25;;;;;;;;;;;;;;;-3.55;100.00;103062.09;5032914;28;19963;-72
2024/01/08 03:31:50;;;;;;;;;;;;;;;-3.50;100.00;103058.72;5031829;28;19975;-72
2024/01/08 03:34:16;;;;;;;;;;;;;;;-3.54;100.00;103062.16;5034731;28;19925;-72
2024/01/08 03:36:45;;;;;;;;;;;;;;;-3.45;100.00;103058.78;5033083;28;19921;-72
2024/01/08 03:39:12;;;;;;;;;;;;;;;-3.38;100.00;103059.75;5028884;28;19959;-72
2024/01/08 03:41:37;;;;;;;;;;;;;;;-3.37;100.00;103057.19;5034248;28;20370;-71
2024/01/08 03:44:02;;;;;;;;;;;;;;;-3.34;100.00;103059.84;5031003;28;19928;-72
2024/01/08 03:46:27;;;;;;;;;;;;;;;-3.33;100.00;103055.47;5038908;28;19921;-71
2024/01/08 03:48:53;;;;;;;;;;;;;;;-3.26;100.00;103056.44;5037380;28;20354;-72
2024/01/08 03:51:18;;;;;;;;;;;;;;;-3.27;100.00;103055.56;5036870;28;20347;-72
2024/01/08 03:53:43;;;;;;;;;;;;;;;-3.26;100.00;103059.97;5018702;28;20684;-72
2024/01/08 03:56:09;;;;;;;;;;;;;;;-3.20;100.00;103054.81;5038975;28;20442;-72
2024/01/08 03:58:36;;;;;;;;;;;;;;;-3.28;100.00;103050.28;5034492;28;20367;-72
2024/01/08 04:01:01;;;;;;;;;;;;;;;-3.24;100.00;103052.09;5035378;28;19913;-71
2024/01/08 04:03:26;;;;;;;;;;;;;;;-3.27;100.00;103046.78;5035259;28;20351;-72
2024/01/08 04:05:51;;;;;;;;;;;;;;;-3.23;100.00;103052.13;5039904;28;20426;-71
2024/01/08 04:08:17;;;;;;;;;;;;;;;-3.20;100.00;103044.31;5018142;28;21228;-71
2024/01/08 04:10:43;;;;;;;;;;;;;;;-3.21;100.00;103055.69;5038682;28;19928;-71
2024/01/08 04:13:08;;;;;;;;;;;;;;;-3.16;100.00;103047.84;5037178;28;19932;-71
2024/01/08 04:15:34;;;;;;;;;;;;;;;-3.19;100.00;103059.22;5037757;28;19925;-71
2024/01/08 04:17:59;;;;;;;;;;;;;;;-3.18;100.00;103055.69;5037002;28;19964;-72
2024/01/08 04:20:24;;;;;;;;;;;;;;;-3.11;100.00;103051.44;5020907;28;20371;-72
2024/01/08 04:22:49;;;;;;;;;;;;;;;-3.06;100.00;103056.75;5037305;28;20281;-72
2024/01/08 04:25:15;;;;;;;;;;;;;;;-3.11;100.00;103053.16;5036169;28;20295;-71
2024/01/08 04:27:40;;;;;;;;;;;;;;;-3.14;100.00;103059.28;5034314;28;19921;-72
2024/01/08 04:30:05;;;;;;;;;;;;;;;-3.13;100.00;103063.66;5035994;28;19927;-73
2024/01/08 04:32:30;;;;;;;;;;;;;;;-3.07;100.00;103054.97;5034198;28;20212;-71
2024/01/08 04:34:56;;;;;;;;;;;;;;;-3.10;100.00;103057.56;5038856;28;19958;-72
2024/01/08 04:37:21;;;;;;;;;;;;;;;-3.05;100.00;103045.38;5039422;28;20001;-72
2024/01/08 04:39:46;;;;;;;;;;;;;;;-3.12;100.00;103062.81;5036309;28;20070;-71
2024/01/08 04:42:12;;;;;;;;;;;;;;;-3.12;100.00;103054.94;5036796;28;19940;-72
2024/01/08 04:44:37;;;;;;;;;;;;;;;-3.06;100.00;103049.78;5037062;28;19921;-72
2024/01/08 04:47:02;;;;;;;;;;;;;;;-3.14;100.00;103053.13;5033888;28;19928;-71
2024/01/08 04:49:27;;;;;;;;;;;;;;;-3.10;100.00;103057.56;5035680;28;20259;-72
2024/01/08 04:51:53;;;;;;;;;;;;;;;-3.11;100.00;103051.44;5038149;28;20472;-71
2024/01/08 04:54:18;;;;;;;;;;;;;;;-3.12;100.00;103057.56;5035492;28;20016;-72
2024/01/08 04:56:43;;;;;;;;;;;;;;;-3.15;100.00;103041.75;5018642;28;19944;-72
2024/01/08 04:59:08;;;;;;;;;;;;;;;-3.17;100.00;103046.94;5037160;28;19953;-71
2024/01/08 05:01:37;;;;;;;;;;;;;;;-3.11;100.00;103051.44;5016576;28;20440;-72
2024/01/08 05:04:02;;;;;;;;;;;;;;;-3.12;100.00;103046.16;5033955;28;19920;-71
2024/01/08 05:06:28;;;;;;;;;;;;;;;-3.15;100.00;103049.63;5034558;28;19970;-72
2024/01/08 05:08:53;;;;;;;;;;;;;;;-3.14;100.00;103059.28;5038366;28;19925;-71
2024/01/08 05:11:18;;;;;;;;;;;;;;;-3.14;100.00;103051.38;5038282;28;20371;-71
2024/01/08 05:13:43;;;;;;;;;;;;;;;-3.14;100.00;103059.28;5038243;28;19956;-72
2024/01/08 05:16:08;;;;;;;;;;;;;;;-3.17;100.00;103057.47;5036249;28;20031;-71
2024/01/08 05:18:34;;;;;;;;;;;;;;;-3.16;100.00;103046.09;5039769;28;20011;-72
2024/01/08 05:20:59;;;;;;;;;;;;;;;-3.22;100.00;103048.66;5039727;28;19927;-72
2024/01/08 05:23:24;;;;;;;;;;;;;;;-3.12;100.00;103048.78;5033768;28;20378;-72
2024/01/08 05:25:49;;;;;;;;;;;;;;;-3.07;100.00;103060.25;5035008;28;20020;-71
2024/01/08 05:28:15;;;;;;;;;;;;;;;-3.10;100.00;103066.34;5030810;28;19935;-72
2024/01/08 05:30:40;;;;;;;;;;;;;;;-3.17;100.00;103057.47;5032502;28;19967;-71
2024/01/08 05:33:06;;;;;;;;;;;;;;;-3.14;100.00;103059.28;5032128;28;19927;-72
2024/01/08 05:35:31;;;;;;;;;;;;;;;-3.13;100.00;103055.78;5032986;28;19928;-72
2024/01/08 05:37:56;;;;;;;;;;;;;;;-3.06;100.00;103052.41;5035493;28;19921;-72
2024/01/08 05:40:21;;;;;;;;;;;;;;;-3.01;100.00;103050.69;5033556;28;19971;-72
2024/01/08 05:42:47;;;;;;;;;;;;;;;-3.01;100.00;103055.94;5026498;28;19972;-72
2024/01/08 05:45:12;;;;;;;;;;;;;;;-3.03;100.00;103054.19;5033455;28;19999;-72
2024/01/08 05:47:37;;;;;;;;;;;;;;;-3.03;100.00;103049.78;5032029;28;19917;-72
2024/01/08 05:50:04;;;;;;;;;;;;;;;-2.94;100.00;103043.81;5035102;28;20489;-72
2024/01/08 05:52:29;;;;;;;;;;;;;;;-2.94;100.00;103048.16;5033773;28;20355;-71
2024/01/08 05:54:55;;;;;;;;;;;;;;;-2.89;100.00;103049.13;5029057;28;19921;-72
2024/01/08 05:57:21;;;;;;;;;;;;;;;-2.90;100.00;103048.22;5034257;28;19921;-72
2024/01/08 05:59:46;;;;;;;;;;;;;;;-2.89;100.00;103051.75;5029490;28;19921;-72
2024/01/08 06:02:11;;;;;;;;;;;;;;;-2.84;100.00;103049.16;5032061;28;20350;-72
2024/01/08 06:04:36;;;;;;;;;;;;;;;-2.84;100.00;103047.44;5031488;28;20023;-72
2024/01/08 06:07:01;;;;;;;;;;;;;;;-2.82;100.00;103048.34;5030687;28;19924;-72
2024/01/08 06:09:27;;;;;;;;;;;;;;;-2.84;100.00;103054.44;5031863;28;20480;-72
2024/01/08 06:11:52;;;;;;;;;;;;;;;-2.81;100.00;103054.47;5035425;28;20408;-71
2024/01/08 06:14:17;;;;;;;;;;;;;;;-2.77;100.00;103053.66;5030928;28;20358;-72
2024/01/08 06:16:42;;;;;;;;;;;;;;;-2.80;100.00;103053.63;5030439;28;20321;-72
2024/01/08 06:19:08;;;;;;;;;;;;;;;-2.71;100.00;103052.00;5036388;28;20381;-72
2024/01/08 06:21:33;;;;;;;;;;;;;;;-2.76;100.00;103051.03;5037999;28;20370;-72
2024/01/08 06:23:58;;;;;;;;;;;;;;;-2.74;100.00;103053.72;5020686;28;20432;-72
2024/01/08 06:26:25;;;;;;;;;;;;;;;-2.73;100.00;103053.72;5031241;28;20393;-72
2024/01/08 06:28:50;;;;;;;;;;;;;;;-2.68;100.00;103055.53;5037782;28;20216;-72
2024/01/08 06:31:15;;;;;;;;;;;;;;;-2.70;100.00;103058.16;5024281;28;19927;-72
2024/01/08 06:33:41;;;;;;;;;;;;;;;-2.64;100.00;103049.44;5035101;28;19916;-72
2024/01/08 06:36:07;;;;;;;;;;;;;;;-2.65;100.00;103045.94;5005766;28;20378;-72
2024/01/08 06:38:32;;;;;;;;;;;;;;;-2.66;100.00;103045.91;5013540;28;19932;-72
2024/01/08 06:40:57;;;;;;;;;;;;;;;-2.63;100.00;103043.31;5027621;28;19928;-72
2024/01/08 06:43:22;;;;;;;;;;;;;;;-2.66;100.00;103044.19;5024671;28;19960;-72
2024/01/08 06:45:49;;;;;;;;;;;;;;;-2.65;100.00;103056.47;5032213;28;20004;-72
2024/01/08 06:48:14;;;;;;;;;;;;;;;-2.66;100.00;103054.69;5018012;28;20367;-72
2024/01/08 06:50:40;;;;;;;;;;;;;;;-2.59;100.00;103045.13;5027885;28;19928;-72
2024/01/08 06:53:05;;;;;;;;;;;;;;;-2.63;100.00;103056.47;5035615;28;20359;-72
2024/01/08 06:55:30;;;;;;;;;;;;;;;-2.60;100.00;103044.22;5029427;28;20117;-72
2024/01/08 06:57:55;;;;;;;;;;;;;;;-2.56;100.00;103047.81;5036310;28;19979;-72
2024/01/08 07:00:21;;;;;;;;;;;;;;;-2.57;100.00;103046.91;5035593;28;20013;-72
2024/01/08 07:02:46;;;;;;;;;;;;;;;-2.50;100.00;103047.84;5034106;28;20019;-72
2024/01/08 07:05:12;;;;;;;;;;;;;;;-2.53;100.00;103055.75;5031754;28;20433;-72
2024/01/08 07:07:37;;;;;;;;;;;;;;;-2.50;100.00;103055.75;5023669;28;20016;-72
2024/01/08 07:10:02;;;;;;;;;;;;;;;-2.57;100.00;103061.81;5032393;28;19927;-72
2024/01/08 07:12:28;;;;;;;;;;;;;;;-2.51;100.00;103068.91;5037454;28;19928;-72
2024/01/08 07:14:53;;;;;;;;;;;;;;;-2.52;100.00;103062.78;5018826;28;19925;-72
2024/01/08 07:17:19;;;;;;;;;;;;;;;-2.49;100.00;103069.81;5017903;28;19959;-72
2024/01/08 07:19:44;;;;;;;;;;;;;;;-2.46;100.00;103085.63;5037663;28;19963;-72
2024/01/08 07:22:09;;;;;;;;;;;;;;;-2.34;100.00;103084.91;5038962;28;19979;-73
2024/01/08 07:24:34;;;;;;;;;;;;;;;-2.39;100.00;103092.75;5038314;28;19975;-73
2024/01/08 07:26:59;;;;;;;;;;;;;;;-2.45;100.00;103083.00;5019680;28;20031;-72
2024/01/08 07:29:26;;;;;;;;;;;;;;;-2.44;100.00;103076.00;5035523;28;21104;-72
2024/01/08 07:31:52;;;;;;;;;;;;;;;-2.43;100.00;103081.28;5032186;28;19927;-72
2024/01/08 07:34:17;;;;;;;;;;;;;;;-2.48;100.00;103074.19;5035056;28;20358;-72
2024/01/08 07:36:42;;;;;;;;;;;;;;;-2.52;100.00;103081.19;5037062;28;19928;-73
2024/01/08 07:39:07;;;;;;;;;;;;;;;-2.44;100.00;103071.63;5029755;28;20054;-72
2024/01/08 07:41:33;;;;;;;;;;;;;;;-2.44;100.00;103079.50;5027605;28;19979;-72
2024/01/08 07:43:58;;;;;;;;;;;;;;;-2.43;100.00;103085.69;5014520;28;19920;-72
2024/01/08 07:46:23;;;;;;;;;;;;;;;-2.49;100.00;103086.47;5035388;28;19921;-72
2024/01/08 07:48:50;;;;;;;;;;;;;;;-2.49;100.00;103086.47;5034024;28;19925;-72
2024/01/08 07:51:19;;;;;;;;;;;;;;;-2.52;100.00;103091.72;5028875;28;19927;-72
2024/01/08 07:53:44;;;;;;;;;;;;;;;-2.40;100.00;103090.97;5034692;28;20001;-72
2024/01/08 07:56:10;;;;;;;;;;;;;;;-2.42;100.00;103085.69;5019461;28;19925;-73
2024/01/08 07:58:35;;;;;;;;;;;;;;;-2.37;100.00;103091.00;5023386;28;19991;-72
2024/01/08 08:01:00;;;;;;;;;;;;;;;-2.42;100.00;103095.34;5031309;28;19916;-72
2024/01/08 08:03:27;;;;;;;;;;;;;;;-2.49;100.00;103096.13;5034029;28;19928;-72
2024/01/08 08:05:52;;;;;;;;;;;;;;;-2.51;100.00;103101.34;5018695;28;20119;-75
2024/01/08 08:08:17;;;;;;;;;;;;;;;-2.53;100.00;103096.94;5016610;28;20121;-73
2024/01/08 08:10:42;;;;;;;;;;;;;;;-2.46;100.00;103102.28;5015503;28;20397;-71
2024/01/08 08:13:08;;;;;;;;;;;;;;;-2.45;100.00;103096.16;5030178;28;20352;-72
2024/01/08 08:15:33;;;;;;;;;;;;;;;-2.35;100.00;103097.16;5029306;28;19931;-72
2024/01/08 08:17:58;;;;;;;;;;;;;;;-2.41;100.00;103095.34;5027066;28;19928;-73
2024/01/08 08:20:23;;;;;;;;;;;;;;;-2.47;100.00;103099.66;5030601;28;19917;-71
2024/01/08 08:22:49;;;;;;;;;;;;;;;-2.43;100.00;103090.94;5032445;28;19917;-71
2024/01/08 08:25:14;;;;;;;;;;;;;;;-2.45;100.00;103098.78;5015610;28;19982;-72
2024/01/08 08:27:39;;;;;;;;;;;;;;;-2.37;100.00;103101.50;5019262;28;19928;-73
2024/01/08 08:30:06;;;;;;;;;;;;;;;-2.38;100.00;103102.38;5028316;28;20416;-72
2024/01/08 08:32:31;;;;;;;;;;;;;;;-2.38;100.00;103106.78;5030321;28;19921;-71
2024/01/08 08:34:56;;;;;;;;;;;;;;;-2.29;100.00;103112.16;5035627;28;19928;-72
2024/01/08 08:37:22;;;;;;;;;;;;;;;-2.31;100.00;103117.38;5020627;28;19924;-74
2024/01/08 08:39:47;;;;;;;;;;;;;;;-2.36;100.00;103110.31;5019526;28;20320;-73
2024/01/08 08:42:12;;;;;;;;;;;;;;;-2.38;100.00;103119.94;5028763;28;19951;-71
2024/01/08 08:44:37;;;;;;;;;;;;;;;-2.37;100.00;103127.81;5018582;28;19963;-71
2024/01/08 08:47:03;;;;;;;;;;;;;;;-2.38;100.00;103131.31;5034995;28;20011;-72
2024/01/08 08:49:28;;;;;;;;;;;;;;;-2.41;100.00;103131.31;5052233;28;20043;-71
2024/01/08 08:51:53;;;;;;;;;;;;;;;-2.35;100.00;103135.75;5036322;28;20619;-71
2024/01/08 08:54:18;;;;;;;;;;;;;;;-2.49;100.00;103117.16;5036647;28;20385;-73
2024/01/08 08:56:44;;;;;;;;;;;;;;;-2.46;100.00;103122.47;5039931;28;19920;-72
2024/01/08 08:59:09;;;;;;;;;;;;;;;-2.38;100.00;103122.56;5036690;28;19979;-72
2024/01/08 09:01:34;;;;;;;;;;;;;;;-2.30;100.00;103121.78;5021920;28;19917;-71
2024/01/08 09:04:00;;;;;;;;;;;;;;;-2.34;100.00;103127.00;5037043;28;19920;-72
2024/01/08 09:06:33;;;;;;;;;;;;;;;-2.38;100.00;103128.69;5021936;28;19967;-72
2024/01/08 09:08:58;;;;;;;;;;;;;;;-2.40;100.00;103130.44;5021076;28;19924;-72
2024/01/08 09:11:23;;;;;;;;;;;;;;;-2.45;100.00;103133.00;5038683;28;19975;-72
2024/01/08 09:13:49;;;;;;;;;;;;;;;-2.35;100.00;103135.75;5021290;28;19959;-72
2024/01/08 09:16:14;;;;;;;;;;;;;;;-2.41;100.00;103141.84;5037889;28;20031;-72
2024/01/08 09:18:40;;;;;;;;;;;;;;;-2.35;100.00;103130.50;5020126;28;19923;-71
2024/01/08 09:21:07;;;;;;;;;;;;;;;-2.35;100.00;103139.25;5038870;28;20299;-73
2024/01/08 09:23:32;;;;;;;;;;;;;;;-2.26;100.00;103133.25;5036080;28;19921;-72
2024/01/08 09:25:57;;;;;;;;;;;;;;;-2.20;100.00;103135.94;5039294;28;20214;-72
2024/01/08 09:28:23;;;;;;;;;;;;;;;-2.16;100.00;103142.16;5039290;28;19921;-72
2024/01/08 09:30:50;;;;;;;;;;;;;;;-2.10;100.00;103134.31;5038609;28;19925;-72
2024/01/08 09:33:15;;;;;;;;;;;;;;;-2.15;100.00;103133.41;5039761;28;19923;-72
2024/01/08 09:35:40;;;;;;;;;;;;;;;-2.07;100.00;103144.88;5036752;28;20581;-72
2024/01/08 09:38:06;;;;;;;;;;;;;;;-2.08;100.00;103151.00;5033848;28;20343;-71
2024/01/08 09:40:32;;;;;;;;;;;;;;;-2.07;100.00;103149.28;5039292;28;20363;-72
2024/01/08 09:42:59;;;;;;;;;;;;;;;-1.96;100.00;103150.28;5038876;28;19962;-72
2024/01/08 09:45:25;;;;;;;;;;;;;;;-2.11;100.00;103158.88;5038709;28;20386;-72
2024/01/08 09:47:50;;;;;;;;;;;;;;;-2.20;100.00;103154.38;5039375;28;19917;-72
2024/01/08 09:50:15;;;;;;;;;;;;;;;-2.27;100.00;103169.22;5037829;28;22014;-72
2024/01/08 09:52:42;;;;;;;;;;;;;;;-2.32;100.00;103168.25;5037875;28;20343;-73
2024/01/08 09:55:10;;;;;;;;;;;;;;;-2.27;100.00;103173.59;5034334;28;19978;-71
2024/01/08 09:57:37;;;;;;;;;;;;;;;-2.00;100.00;103166.94;5028918;28;19921;-72
2024/01/08 10:00:03;;;;;;;;;;;;;;;-1.93;100.00;103165.25;5017700;28;19929;-71
2024/01/08 10:02:28;;;;;;;;;;;;;;;-1.48;100.00;103171.00;5018166;28;19925;-71
2024/01/08 10:04:53;;;;;;;;;;;;;;;-1.12;100.00;103152.00;5008404;28;19959;-72
2024/01/08 10:07:19;;;;;;;;;;;;;;;-0.35;100.00;103158.69;5038832;28;19963;-72
2024/01/08 10:09:44;;;;;;;;;;;;;;;0.18;100.00;103141.28;5037245;28;19966;-72
2024/01/08 10:12:12;;;;;;;;;;;;;;;0.78;100.00;103139.63;5038038;28;19983;-72
2024/01/08 10:14:37;;;;;;;;;;;;;;;1.45;100.00;103146.63;5036676;28;20219;-72
2024/01/08 10:17:03;;;;;;;;;;;;;;;1.29;100.00;103140.47;5037263;28;19917;-72
2024/01/08 10:19:28;;;;;;;;;;;;;;;1.30;100.00;103136.03;5036684;28;19920;-73
2024/01/08 10:22:13;;;;;;;;;;;;;;;0.78;100.00;103134.34;5037901;28;19956;-72
2024/01/08 10:24:38;;;;;;;;;;;;;;;0.86;100.00;103133.44;5026388;28;19920;-72
2024/01/08 10:27:04;;;;;;;;;;;;;;;0.37;100.00;103131.63;5024054;28;19920;-72
2024/01/08 10:29:29;;;;;;;;;;;;;;;0.02;100.00;103131.56;5029675;28;19925;-72
2024/01/08 10:31:55;;;;;;;;;;;;;;;-0.37;100.00;103132.25;5036421;28;19920;-72
2024/01/08 10:34:20;;;;;;;;;;;;;;;-0.54;100.00;103145.41;5016909;28;22086;-72
2024/01/08 10:36:45;;;;;;;;;;;;;;;-0.72;100.00;103139.97;5033137;28;19967;-72
2024/01/08 10:39:10;;;;;;;;;;;;;;;-0.64;100.00;103141.78;5035106;28;19991;-72
2024/01/08 10:41:36;;;;;;;;;;;;;;;-0.89;100.00;103140.75;5013532;28;20274;-72
2024/01/08 10:44:01;;;;;;;;;;;;;;;-0.79;100.00;103139.06;5027119;28;19948;-72
2024/01/08 10:46:27;;;;;;;;;;;;;;;-0.73;100.00;103139.13;5031904;28;19940;-72
2024/01/08 10:48:52;;;;;;;;;;;;;;;-0.89;100.00;103134.59;5036731;28;19959;-72
2024/01/08 10:51:18;;;;;;;;;;;;;;;-0.69;100.00;103124.16;5036187;28;19944;-75
2024/01/08 10:53:44;;;;;;;;;;;;;;;-0.96;100.00;103126.66;5037903;28;19920;-73
2024/01/08 10:56:10;;;;;;;;;;;;;;;-1.08;100.00;103138.00;5023243;28;19920;-72
2024/01/08 10:58:35;;;;;;;;;;;;;;;-1.11;100.00;103130.06;5033883;28;19925;-72
2024/01/08 11:01:02;;;;;;;;;;;;;;;-1.09;100.00;103128.31;5037159;28;19928;-72
2024/01/08 11:03:27;;;;;;;;;;;;;;;-0.89;100.00;103130.22;5035668;28;19924;-72
2024/01/08 11:05:52;;;;;;;;;;;;;;;-0.86;100.00;103126.69;5038406;28;20409;-71
2024/01/08 11:08:21;;;;;;;;;;;;;;;-1.13;100.00;103130.88;5036031;28;20367;-74
2024/01/08 11:10:46;;;;;;;;;;;;;;;-1.28;100.00;103122.00;5036674;28;19920;-72
2024/01/08 11:13:11;;;;;;;;;;;;;;;-0.66;100.00;103117.16;5033222;28;19928;-72
2024/01/08 11:15:36;;;;;;;;;;;;;;;-0.65;100.00;103120.69;5036660;28;19925;-73
2024/01/08 11:18:03;;;;;;;;;;;;;;;-0.98;100.00;103124.84;5037513;28;19920;-75
2024/01/08 11:20:38;;;;;;;;;;;;;;;-0.91;100.00;103118.75;5036651;28;19920;-72
2024/01/08 11:23:04;;;;;;;;;;;;;;;-0.68;100.00;103103.09;5036134;28;19917;-73
2024/01/08 11:25:29;;;;;;;;;;;;;;;0.63;100.00;103080.56;5020180;28;19920;-73
2024/01/08 11:27:57;;;;;;;;;;;;;;;2.31;100.00;103098.53;5036814;28;19921;-72
2024/01/08 11:30:22;;;;;;;;;;;;;;;2.96;100.00;103090.03;5036542;28;20139;-72
2024/01/08 11:32:48;;;;;;;;;;;;;;;3.39;100.00;103076.31;5036160;28;20319;-76
2024/01/08 11:35:13;;;;;;;;;;;;;;;3.18;100.00;103088.06;5038684;28;19923;-73
2024/01/08 11:37:42;;;;;;;;;;;;;;;2.81;100.00;103085.75;5036099;28;19917;-72
2024/01/08 11:40:17;;;;;;;;;;;;;;;1.94;99.72;103081.09;5019068;28;19925;-72
2024/01/08 11:42:49;;;;;;;;;;;;;;;1.52;98.67;103090.97;5035359;28;19921;-74
2024/01/08 11:45:15;;;;;;;;;;;;;;;1.39;100.00;103093.69;5035644;28;20444;-75
2024/01/08 11:47:40;;;;;;;;;;;;;;;0.87;99.40;103084.97;5035796;28;19925;-73
2024/01/08 11:50:06;;;;;;;;;;;;;;;1.72;94.01;103067.06;5019554;28;20011;-72
2024/01/08 11:52:32;;;;;;;;;;;;;;;2.19;92.90;103065.91;5035380;28;19963;-76
2024/01/08 11:54:57;;;;;;;;;;;;;;;2.73;91.70;103063.75;5035969;28;19952;-72
2024/01/08 11:57:22;;;;;;;;;;;;;;;3.69;87.64;103050.28;5036380;28;20022;-72
2024/01/08 11:59:48;;;;;;;;;;;;;;;3.95;82.52;103056.13;5033683;28;19924;-72
2024/01/08 12:02:20;;;;;;;;;;;;;;;4.53;72.21;103050.81;5035102;28;19924;-72
2024/01/08 12:04:58;;;;;;;;;;;;;;;5.36;71.73;103046.59;5035936;28;19921;-72
2024/01/08 12:07:24;;;;;;;;;;;;;;;5.23;63.35;103045.97;5042023;28;19928;-73
2024/01/08 12:09:49;;;;;;;;;;;;;;;5.33;58.43;103043.09;5038288;28;20124;-75
2024/01/08 12:12:18;;;;;;;;;;;;;;;5.89;57.00;103048.16;5041286;28;20007;-74
2024/01/08 12:14:46;;;;;;;;;;;;;;;5.22;53.24;103052.22;5037543;28;20015;-79
2024/01/08 12:17:12;;;;;;;;;;;;;;;5.69;53.01;103038.78;5039960;28;19931;-75
2024/01/08 12:19:47;;;;;;;;;;;;;;;5.77;51.62;103040.41;5039889;28;20598;-71